createdAt,value
2022-12-24T00:00:31.959Z,94976
2022-12-24T00:01:40.599Z,94980
2022-12-24T00:02:49.355Z,94978
2022-12-24T00:03:58.905Z,94989
2022-12-24T00:05:07.577Z,94991
2022-12-24T00:06:16.260Z,94985
2022-12-24T00:07:25.929Z,94988
2022-12-24T00:08:35.610Z,94990
2022-12-24T00:09:45.266Z,94991
2022-12-24T00:10:54.947Z,94991
2022-12-24T00:12:03.646Z,94997
2022-12-24T00:13:12.296Z,94996
2022-12-24T00:14:21.945Z,94994
2022-12-24T00:15:31.598Z,95003
2022-12-24T00:16:41.353Z,95005
2022-12-24T00:17:50.998Z,95004
2022-12-24T00:19:00.717Z,95004
2022-12-24T00:20:10.360Z,95004
2022-12-24T00:21:20.035Z,95007
2022-12-24T00:22:29.724Z,95002
2022-12-24T00:23:39.391Z,95008
2022-12-24T00:24:49.077Z,95011
2022-12-24T00:25:58.742Z,95014
2022-12-24T00:27:07.450Z,95010
2022-12-24T00:28:17.062Z,95018
2022-12-24T00:29:26.763Z,95007
2022-12-24T00:30:35.452Z,95013
2022-12-24T00:31:45.096Z,95019
2022-12-24T00:32:52.740Z,95012
2022-12-24T00:34:01.415Z,95020
2022-12-24T00:35:10.134Z,95014
2022-12-24T00:36:18.781Z,95013
2022-12-24T00:37:29.465Z,95016
2022-12-24T00:38:38.131Z,95008
2022-12-24T00:39:46.845Z,95003
2022-12-24T00:40:56.498Z,95005
2022-12-24T00:42:06.188Z,95013
2022-12-24T00:43:15.897Z,95019
2022-12-24T00:44:26.525Z,95021
2022-12-24T00:45:36.268Z,95028
2022-12-24T00:46:45.987Z,95029
2022-12-24T00:47:53.599Z,95032
2022-12-24T00:49:01.255Z,95035
2022-12-24T00:50:10.926Z,95036
2022-12-24T00:51:18.727Z,95038
2022-12-24T00:52:28.286Z,95037
2022-12-24T00:53:36.971Z,95045
2022-12-24T00:54:46.621Z,95046
2022-12-24T00:55:56.305Z,95036
2022-12-24T00:57:03.985Z,95040
2022-12-24T00:58:12.643Z,95039
2022-12-24T00:59:22.333Z,95040
2022-12-24T01:00:29.958Z,95045
2022-12-24T01:01:38.701Z,95043
2022-12-24T01:02:47.528Z,95051
2022-12-24T01:03:56.988Z,95051
2022-12-24T01:05:06.660Z,95051
2022-12-24T01:06:14.305Z,95049
2022-12-24T01:07:23.996Z,95049
2022-12-24T01:08:33.701Z,95053
2022-12-24T01:09:42.365Z,95055
2022-12-24T01:10:52.035Z,95064
2022-12-24T01:12:01.709Z,95070
2022-12-24T01:13:10.398Z,95074
2022-12-24T01:14:20.073Z,95080
2022-12-24T01:15:27.767Z,95084
2022-12-24T01:16:37.421Z,95078
2022-12-24T01:17:47.092Z,95083
2022-12-24T01:18:56.773Z,95079
2022-12-24T01:20:05.480Z,95077
2022-12-24T01:21:15.164Z,95078
2022-12-24T01:22:23.842Z,95076
2022-12-24T01:23:33.588Z,95075
2022-12-24T01:24:42.279Z,95074
2022-12-24T01:25:50.963Z,95076
2022-12-24T01:27:00.619Z,95079
2022-12-24T01:28:09.314Z,95080
2022-12-24T01:29:18.981Z,95074
2022-12-24T01:30:27.665Z,95080
2022-12-24T01:31:36.417Z,95080
2022-12-24T01:32:45.049Z,95080
2022-12-24T01:33:53.730Z,95087
2022-12-24T01:35:02.404Z,95086
2022-12-24T01:36:12.180Z,95092
2022-12-24T01:37:21.843Z,95093
2022-12-24T01:38:30.545Z,95092
2022-12-24T01:39:39.197Z,95097
2022-12-24T01:40:47.848Z,95097
2022-12-24T01:41:57.530Z,95098
2022-12-24T01:43:05.262Z,95097
2022-12-24T01:44:13.906Z,95105
2022-12-24T01:45:23.583Z,95110
2022-12-24T01:46:32.376Z,95109
2022-12-24T01:47:40.950Z,95110
2022-12-24T01:48:50.622Z,95108
2022-12-24T01:49:59.286Z,95113
2022-12-24T01:51:08.960Z,95116
2022-12-24T01:52:16.642Z,95118
2022-12-24T01:53:26.325Z,95121
2022-12-24T01:54:36.001Z,95122
2022-12-24T01:55:43.694Z,95121
2022-12-24T01:56:52.385Z,95124
2022-12-24T01:58:02.092Z,95127
2022-12-24T01:59:10.765Z,95123
2022-12-24T02:00:20.424Z,95127
2022-12-24T02:01:30.228Z,95124
2022-12-24T02:02:38.950Z,95118
2022-12-24T02:03:48.552Z,95124
2022-12-24T02:04:57.163Z,95127
2022-12-24T02:06:06.875Z,95124
2022-12-24T02:07:15.566Z,95129
2022-12-24T02:08:24.219Z,95135
2022-12-24T02:09:33.897Z,95124
2022-12-24T02:10:42.566Z,95118
2022-12-24T02:11:52.264Z,95128
2022-12-24T02:13:01.926Z,95131
2022-12-24T02:14:10.598Z,95137
2022-12-24T02:15:19.263Z,95132
2022-12-24T02:16:28.985Z,95138
2022-12-24T02:17:38.676Z,95131
2022-12-24T02:18:48.339Z,95140
2022-12-24T02:19:58.038Z,95153
2022-12-24T02:21:06.727Z,95147
2022-12-24T02:22:16.363Z,95140
2022-12-24T02:23:26.047Z,95134
2022-12-24T02:24:35.752Z,95154
2022-12-24T02:25:44.425Z,95151
2022-12-24T02:26:53.088Z,95144
2022-12-24T02:28:02.772Z,95154
2022-12-24T02:29:11.457Z,95146
2022-12-24T02:30:21.158Z,95151
2022-12-24T02:31:30.943Z,95142
2022-12-24T02:32:40.503Z,95142
2022-12-24T02:33:50.193Z,95142
2022-12-24T02:34:59.892Z,95135
2022-12-24T02:36:09.535Z,95146
2022-12-24T02:37:19.207Z,95148
2022-12-24T02:38:27.880Z,95150
2022-12-24T02:39:37.542Z,95151
2022-12-24T02:40:45.256Z,95152
2022-12-24T02:41:54.926Z,95151
2022-12-24T02:43:04.588Z,95164
2022-12-24T02:44:13.272Z,95162
2022-12-24T02:45:22.948Z,95169
2022-12-24T02:46:32.736Z,95181
2022-12-24T02:47:42.302Z,95173
2022-12-24T02:48:51.972Z,95174
2022-12-24T02:50:00.652Z,95170
2022-12-24T02:51:09.320Z,95185
2022-12-24T02:52:19.027Z,95174
2022-12-24T02:53:26.652Z,95173
2022-12-24T02:54:36.318Z,95175
2022-12-24T02:55:45.993Z,95173
2022-12-24T02:56:54.651Z,95178
2022-12-24T02:58:04.362Z,95183
2022-12-24T02:59:13.056Z,95184
2022-12-24T03:00:21.769Z,95182
2022-12-24T03:01:31.481Z,95182
2022-12-24T03:02:39.116Z,95181
2022-12-24T03:03:48.747Z,95179
2022-12-24T03:04:57.403Z,95180
2022-12-24T03:06:07.049Z,95178
2022-12-24T03:07:16.715Z,95174
2022-12-24T03:08:26.401Z,95181
2022-12-24T03:09:36.075Z,95181
2022-12-24T03:10:45.732Z,95175
2022-12-24T03:11:53.375Z,95171
2022-12-24T03:13:03.035Z,95177
2022-12-24T03:14:12.702Z,95167
2022-12-24T03:15:21.366Z,95173
2022-12-24T03:16:31.119Z,95171
2022-12-24T03:17:39.742Z,95171
2022-12-24T03:18:48.414Z,95169
2022-12-24T03:19:58.194Z,95180
2022-12-24T03:21:07.892Z,95183
2022-12-24T03:22:15.537Z,95183
2022-12-24T03:23:25.226Z,95188
2022-12-24T03:24:34.926Z,95186
2022-12-24T03:25:44.546Z,95187
2022-12-24T03:26:54.213Z,95186
2022-12-24T03:28:03.926Z,95184
2022-12-24T03:29:13.592Z,95179
2022-12-24T03:30:23.270Z,95182
2022-12-24T03:31:32.926Z,95174
2022-12-24T03:32:42.595Z,95177
2022-12-24T03:33:52.264Z,95180
2022-12-24T03:35:01.931Z,95184
2022-12-24T03:36:10.582Z,95195
2022-12-24T03:37:19.251Z,95189
2022-12-24T03:38:28.948Z,95194
2022-12-24T03:39:37.633Z,95200
2022-12-24T03:40:47.294Z,95193
2022-12-24T03:41:55.946Z,95203
2022-12-24T03:43:04.610Z,95210
2022-12-24T03:44:14.304Z,95205
2022-12-24T03:45:23.042Z,95212
2022-12-24T03:46:31.606Z,95216
2022-12-24T03:47:41.311Z,95218
2022-12-24T03:48:49.016Z,95216
2022-12-24T03:49:57.705Z,95220
2022-12-24T03:51:07.368Z,95220
2022-12-24T03:52:16.014Z,95212
2022-12-24T03:53:25.771Z,95217
2022-12-24T03:54:34.423Z,95211
2022-12-24T03:55:44.146Z,95211
2022-12-24T03:56:53.771Z,95206
2022-12-24T03:58:03.470Z,95195
2022-12-24T03:59:13.123Z,95194
2022-12-24T04:00:21.794Z,95192
2022-12-24T04:01:30.713Z,95194
2022-12-24T04:02:40.369Z,95206
2022-12-24T04:03:47.869Z,95208
2022-12-24T04:04:57.548Z,95213
2022-12-24T04:06:07.201Z,95215
2022-12-24T04:07:15.887Z,95223
2022-12-24T04:08:24.556Z,95230
2022-12-24T04:09:33.264Z,95221
2022-12-24T04:10:42.894Z,95223
2022-12-24T04:11:52.561Z,95220
2022-12-24T04:13:01.234Z,95225
2022-12-24T04:14:09.876Z,95224
2022-12-24T04:15:19.548Z,95230
2022-12-24T04:16:27.219Z,95230
2022-12-24T04:17:35.905Z,95237
2022-12-24T04:18:44.588Z,95244
2022-12-24T04:19:54.241Z,95240
2022-12-24T04:21:03.943Z,95244
2022-12-24T04:22:13.578Z,95248
2022-12-24T04:23:23.263Z,95252
2022-12-24T04:24:30.943Z,95250
2022-12-24T04:25:38.596Z,95240
2022-12-24T04:26:48.313Z,95251
2022-12-24T04:27:57.988Z,95251
2022-12-24T04:29:07.665Z,95250
2022-12-24T04:30:16.327Z,95259
2022-12-24T04:31:25.040Z,95252
2022-12-24T04:32:34.689Z,95249
2022-12-24T04:33:44.375Z,95259
2022-12-24T04:34:53.013Z,95261
2022-12-24T04:36:02.752Z,95264
2022-12-24T04:37:11.425Z,95265
2022-12-24T04:38:21.116Z,95276
2022-12-24T04:39:30.803Z,95264
2022-12-24T04:40:39.456Z,95266
2022-12-24T04:41:49.172Z,95262
2022-12-24T04:42:58.853Z,95266
2022-12-24T04:44:07.526Z,95270
2022-12-24T04:45:17.216Z,95255
2022-12-24T04:46:26.997Z,95265
2022-12-24T04:47:35.624Z,95261
2022-12-24T04:48:44.290Z,95250
2022-12-24T04:49:52.926Z,95255
2022-12-24T04:51:02.582Z,95266
2022-12-24T04:52:10.241Z,95264
2022-12-24T04:53:19.942Z,95271
2022-12-24T04:54:29.581Z,95275
2022-12-24T04:55:38.240Z,95277
2022-12-24T04:56:47.910Z,95282
2022-12-24T04:57:56.574Z,95277
2022-12-24T04:59:06.297Z,95291
2022-12-24T05:00:15.979Z,95284
2022-12-24T05:01:25.688Z,95282
2022-12-24T05:02:34.444Z,95303
2022-12-24T05:03:43.965Z,95292
2022-12-24T05:04:51.638Z,95282
2022-12-24T05:06:01.689Z,95279
2022-12-24T05:07:10.966Z,95281
2022-12-24T05:08:19.610Z,95289
2022-12-24T05:09:29.282Z,95282
2022-12-24T05:10:38.984Z,95294
2022-12-24T05:11:47.652Z,95284
2022-12-24T05:12:57.347Z,95286
2022-12-24T05:14:06.027Z,95282
2022-12-24T05:15:14.700Z,95283
2022-12-24T05:16:24.486Z,95281
2022-12-24T05:17:33.076Z,95282
2022-12-24T05:18:42.745Z,95298
2022-12-24T05:19:49.445Z,95294
2022-12-24T05:20:59.128Z,95291
2022-12-24T05:22:08.840Z,95280
2022-12-24T05:23:17.504Z,95284
2022-12-24T05:24:27.159Z,95293
2022-12-24T05:25:35.855Z,95292
2022-12-24T05:26:44.511Z,95291
2022-12-24T05:27:54.216Z,95287
2022-12-24T05:29:03.896Z,95296
2022-12-24T05:30:12.544Z,95298
2022-12-24T05:31:22.268Z,95307
2022-12-24T05:32:30.952Z,95301
2022-12-24T05:33:39.589Z,95296
2022-12-24T05:34:48.250Z,95291
2022-12-24T05:35:56.991Z,95289
2022-12-24T05:37:06.688Z,95292
2022-12-24T05:38:14.324Z,95295
2022-12-24T05:39:22.994Z,95293
2022-12-24T05:40:32.710Z,95288
2022-12-24T05:41:41.363Z,95289
2022-12-24T05:42:51.073Z,95282
2022-12-24T05:43:59.751Z,95292
2022-12-24T05:45:08.438Z,95295
2022-12-24T05:46:18.150Z,95300
2022-12-24T05:47:25.791Z,95308
2022-12-24T05:48:35.538Z,95317
2022-12-24T05:49:44.168Z,95310
2022-12-24T05:50:52.873Z,95320
2022-12-24T05:52:02.542Z,95315
2022-12-24T05:53:11.217Z,95322
2022-12-24T05:54:19.876Z,95319
2022-12-24T05:55:29.549Z,95319
2022-12-24T05:56:39.242Z,95325
2022-12-24T05:57:47.906Z,95329
2022-12-24T05:58:56.566Z,95326
2022-12-24T06:00:05.282Z,95327
2022-12-24T06:01:13.031Z,95324
2022-12-24T06:02:22.686Z,95324
2022-12-24T06:03:32.296Z,95327
2022-12-24T06:04:42.198Z,95327
2022-12-24T06:05:50.707Z,95325
2022-12-24T06:06:59.367Z,95324
2022-12-24T06:08:09.053Z,95330
2022-12-24T06:09:16.702Z,95338
2022-12-24T06:10:26.384Z,95339
2022-12-24T06:11:36.035Z,95345
2022-12-24T06:12:44.807Z,95346
2022-12-24T06:13:54.529Z,95348
2022-12-24T06:15:03.235Z,95346
2022-12-24T06:16:12.965Z,95352
2022-12-24T06:17:22.678Z,95356
2022-12-24T06:18:31.399Z,95359
2022-12-24T06:19:41.168Z,95370
2022-12-24T06:20:50.946Z,95361
2022-12-24T06:22:00.664Z,95362
2022-12-24T06:23:10.412Z,95371
2022-12-24T06:24:21.143Z,95362
2022-12-24T06:25:30.911Z,95360
2022-12-24T06:26:40.655Z,95361
2022-12-24T06:27:50.372Z,95356
2022-12-24T06:29:00.118Z,95354
2022-12-24T06:30:08.838Z,95347
2022-12-24T06:31:19.670Z,95350
2022-12-24T06:32:29.303Z,95350
2022-12-24T06:33:39.022Z,95354
2022-12-24T06:34:48.757Z,95360
2022-12-24T06:35:58.472Z,95360
2022-12-24T06:37:07.201Z,95358
2022-12-24T06:38:16.896Z,95360
2022-12-24T06:39:26.622Z,95350
2022-12-24T06:40:36.375Z,95359
2022-12-24T06:41:46.082Z,95362
2022-12-24T06:42:55.870Z,95365
2022-12-24T06:44:05.614Z,95366
2022-12-24T06:45:15.330Z,95365
2022-12-24T06:46:25.077Z,95364
2022-12-24T06:47:34.742Z,95363
2022-12-24T06:48:43.466Z,95366
2022-12-24T06:49:52.188Z,95367
2022-12-24T06:51:01.928Z,95372
2022-12-24T06:52:10.603Z,95374
2022-12-24T06:53:20.382Z,95376
2022-12-24T06:54:30.152Z,95375
2022-12-24T06:55:39.883Z,95374
2022-12-24T06:56:49.631Z,95374
2022-12-24T06:58:00.334Z,95381
2022-12-24T06:59:09.048Z,95392
2022-12-24T07:00:18.853Z,95392
2022-12-24T07:01:28.634Z,95400
2022-12-24T07:02:38.300Z,95398
2022-12-24T07:03:46.054Z,95403
2022-12-24T07:04:55.639Z,95402
2022-12-24T07:06:05.400Z,95395
2022-12-24T07:07:15.127Z,95396
2022-12-24T07:08:24.843Z,95386
2022-12-24T07:09:33.668Z,95384
2022-12-24T07:10:42.395Z,95381
2022-12-24T07:11:53.102Z,95388
2022-12-24T07:13:02.889Z,95385
2022-12-24T07:14:11.575Z,95386
2022-12-24T07:15:21.263Z,95390
2022-12-24T07:16:30.058Z,95385
2022-12-24T07:17:38.732Z,95387
2022-12-24T07:18:48.358Z,95384
2022-12-24T07:19:57.057Z,95390
2022-12-24T07:21:06.817Z,95391
2022-12-24T07:22:16.565Z,95402
2022-12-24T07:23:25.290Z,95393
2022-12-24T07:24:35.007Z,95402
2022-12-24T07:25:43.671Z,95404
2022-12-24T07:26:53.335Z,95410
2022-12-24T07:28:00.996Z,95409
2022-12-24T07:29:09.746Z,95430
2022-12-24T07:30:19.485Z,95412
2022-12-24T07:31:27.285Z,95412
2022-12-24T07:32:36.931Z,95417
2022-12-24T07:33:46.653Z,95413
2022-12-24T07:34:54.370Z,95416
2022-12-24T07:36:03.028Z,95417
2022-12-24T07:37:11.683Z,95420
2022-12-24T07:38:20.395Z,95419
2022-12-24T07:39:30.124Z,95423
2022-12-24T07:40:39.870Z,95429
2022-12-24T07:41:49.625Z,95429
2022-12-24T07:42:59.390Z,95428
2022-12-24T07:44:09.095Z,95426
2022-12-24T07:45:18.796Z,95439
2022-12-24T07:46:27.554Z,95436
2022-12-24T07:47:36.202Z,95441
2022-12-24T07:48:45.870Z,95443
2022-12-24T07:49:55.520Z,95449
2022-12-24T07:51:05.161Z,95454
2022-12-24T07:52:14.850Z,95461
2022-12-24T07:53:22.557Z,95466
2022-12-24T07:54:32.341Z,95465
2022-12-24T07:55:42.067Z,95463
2022-12-24T07:56:50.708Z,95467
2022-12-24T07:58:00.390Z,95466
2022-12-24T07:59:08.100Z,95463
2022-12-24T08:00:16.751Z,95469
2022-12-24T08:01:26.519Z,95474
2022-12-24T08:02:35.209Z,95465
2022-12-24T08:03:43.951Z,95468
2022-12-24T08:04:52.471Z,95468
2022-12-24T08:06:02.135Z,95476
2022-12-24T08:07:11.822Z,95475
2022-12-24T08:08:20.460Z,95482
2022-12-24T08:09:29.160Z,95471
2022-12-24T08:10:38.855Z,95477
2022-12-24T08:11:51.861Z,95481
2022-12-24T08:12:57.142Z,95476
2022-12-24T08:14:05.783Z,95478
2022-12-24T08:15:14.497Z,95477
2022-12-24T08:16:24.198Z,95482
2022-12-24T08:17:33.802Z,95493
2022-12-24T08:18:43.475Z,95492
2022-12-24T08:19:51.166Z,95494
2022-12-24T08:21:00.843Z,95492
2022-12-24T08:22:10.511Z,95500
2022-12-24T08:23:18.186Z,95495
2022-12-24T08:24:27.844Z,95497
2022-12-24T08:25:36.493Z,95500
2022-12-24T08:26:45.214Z,95500
2022-12-24T08:27:54.854Z,95507
2022-12-24T08:29:04.554Z,95499
2022-12-24T08:30:19.087Z,95503
2022-12-24T08:31:24.903Z,95502
2022-12-24T08:32:32.528Z,95501
2022-12-24T08:33:42.253Z,95517
2022-12-24T08:34:51.911Z,95506
2022-12-24T08:36:01.581Z,95507
2022-12-24T08:37:11.244Z,95504
2022-12-24T08:38:18.932Z,95526
2022-12-24T08:39:28.584Z,95509
2022-12-24T08:40:38.252Z,95507
2022-12-24T08:41:46.910Z,95510
2022-12-24T08:42:56.742Z,95506
2022-12-24T08:44:06.251Z,95501
2022-12-24T08:45:14.927Z,95502
2022-12-24T08:46:24.633Z,95501
2022-12-24T08:47:32.265Z,95503
2022-12-24T08:48:40.919Z,95508
2022-12-24T08:49:50.591Z,95517
2022-12-24T08:51:00.275Z,95521
2022-12-24T08:52:08.903Z,95522
2022-12-24T08:53:17.556Z,95522
2022-12-24T08:54:27.270Z,95520
2022-12-24T08:55:36.978Z,95525
2022-12-24T08:56:45.625Z,95525
2022-12-24T08:57:54.299Z,95527
2022-12-24T08:59:03.981Z,95531
2022-12-24T09:00:12.622Z,95537
2022-12-24T09:01:21.478Z,95542
2022-12-24T09:02:31.099Z,95533
2022-12-24T09:03:39.663Z,95550
2022-12-24T09:04:49.332Z,95550
2022-12-24T09:05:57.979Z,95544
2022-12-24T09:07:07.678Z,95557
2022-12-24T09:08:17.341Z,95551
2022-12-24T09:09:26.055Z,95555
2022-12-24T09:10:36.743Z,95560
2022-12-24T09:11:46.369Z,95563
2022-12-24T09:12:55.037Z,95563
2022-12-24T09:14:04.698Z,95569
2022-12-24T09:15:12.372Z,95584
2022-12-24T09:16:21.126Z,95560
2022-12-24T09:17:30.650Z,95565
2022-12-24T09:18:38.339Z,95565
2022-12-24T09:19:46.991Z,95568
2022-12-24T09:20:57.521Z,95569
2022-12-24T09:22:04.294Z,95586
2022-12-24T09:23:13.955Z,95585
2022-12-24T09:24:23.623Z,95585
2022-12-24T09:25:33.301Z,95580
2022-12-24T09:26:42.962Z,95587
2022-12-24T09:27:53.616Z,95590
2022-12-24T09:29:01.281Z,95588
2022-12-24T09:30:10.966Z,95586
2022-12-24T09:31:20.669Z,95588
2022-12-24T09:32:29.295Z,95588
2022-12-24T09:33:38.952Z,95581
2022-12-24T09:34:47.606Z,95585
2022-12-24T09:35:57.265Z,95585
2022-12-24T09:37:05.922Z,95583
2022-12-24T09:38:15.583Z,95588
2022-12-24T09:39:24.241Z,95589
2022-12-24T09:40:33.918Z,95591
2022-12-24T09:41:43.614Z,95583
2022-12-24T09:42:52.275Z,95580
2022-12-24T09:44:01.932Z,95587
2022-12-24T09:45:11.605Z,95580
2022-12-24T09:46:21.295Z,95583
2022-12-24T09:47:29.966Z,95582
2022-12-24T09:48:39.639Z,95578
2022-12-24T09:49:48.241Z,95573
2022-12-24T09:50:57.898Z,95591
2022-12-24T09:52:05.580Z,95578
2022-12-24T09:53:14.243Z,95574
2022-12-24T09:54:23.919Z,95572
2022-12-24T09:55:33.584Z,95565
2022-12-24T09:56:42.284Z,95561
2022-12-24T09:57:50.943Z,95572
2022-12-24T09:59:00.629Z,95567
2022-12-24T10:00:10.298Z,95578
2022-12-24T10:01:19.086Z,95578
2022-12-24T10:02:27.762Z,95575
2022-12-24T10:03:37.339Z,95577
2022-12-24T10:04:46.948Z,95573
2022-12-24T10:05:56.613Z,95572
2022-12-24T10:07:05.273Z,95577
2022-12-24T10:08:13.970Z,95578
2022-12-24T10:09:23.630Z,95569
2022-12-24T10:10:31.332Z,95568
2022-12-24T10:11:39.983Z,95570
2022-12-24T10:12:50.118Z,95571
2022-12-24T10:13:58.298Z,95569
2022-12-24T10:15:05.956Z,95570
2022-12-24T10:16:14.637Z,95574
2022-12-24T10:17:24.300Z,95571
2022-12-24T10:18:32.947Z,95564
2022-12-24T10:19:41.631Z,95570
2022-12-24T10:20:51.257Z,95569
2022-12-24T10:21:59.950Z,95583
2022-12-24T10:23:08.591Z,95574
2022-12-24T10:24:18.244Z,95577
2022-12-24T10:25:25.895Z,95578
2022-12-24T10:26:35.585Z,95574
2022-12-24T10:27:45.275Z,95584
2022-12-24T10:28:54.932Z,95589
2022-12-24T10:30:04.619Z,95585
2022-12-24T10:31:14.359Z,95591
2022-12-24T10:32:22.905Z,95590
2022-12-24T10:33:32.611Z,95583
2022-12-24T10:34:40.274Z,95583
2022-12-24T10:35:49.002Z,95593
2022-12-24T10:36:58.621Z,95595
2022-12-24T10:38:07.300Z,95582
2022-12-24T10:39:16.982Z,95586
2022-12-24T10:40:24.645Z,95586
2022-12-24T10:41:34.323Z,95583
2022-12-24T10:42:50.831Z,95580
2022-12-24T10:43:54.636Z,95587
2022-12-24T10:45:03.338Z,95575
2022-12-24T10:46:12.005Z,95581
2022-12-24T10:47:21.661Z,95575
2022-12-24T10:48:31.347Z,95568
2022-12-24T10:49:39.005Z,95571
2022-12-24T10:50:47.671Z,95565
2022-12-24T10:51:57.359Z,95565
2022-12-24T10:53:04.990Z,95570
2022-12-24T10:54:14.655Z,95575
2022-12-24T10:55:25.307Z,95579
2022-12-24T10:56:34.956Z,95571
2022-12-24T10:57:44.632Z,95572
2022-12-24T10:58:54.301Z,95578
2022-12-24T11:00:02.959Z,95583
2022-12-24T11:01:12.713Z,95574
2022-12-24T11:02:20.447Z,95572
2022-12-24T11:03:30.001Z,95572
2022-12-24T11:04:39.632Z,95575
2022-12-24T11:05:49.290Z,95585
2022-12-24T11:06:58.946Z,95577
2022-12-24T11:08:08.731Z,95591
2022-12-24T11:09:17.347Z,95584
2022-12-24T11:10:27.020Z,95583
2022-12-24T11:11:34.700Z,95581
2022-12-24T11:12:43.345Z,95584
2022-12-24T11:13:54.004Z,95582
2022-12-24T11:15:03.649Z,95580
2022-12-24T11:16:13.435Z,95580
2022-12-24T11:17:21.020Z,95584
2022-12-24T11:18:30.693Z,95587
2022-12-24T11:19:40.364Z,95579
2022-12-24T11:20:49.036Z,95580
2022-12-24T11:21:57.670Z,95591
2022-12-24T11:23:06.341Z,95586
2022-12-24T11:24:15.017Z,95588
2022-12-24T11:25:24.705Z,95589
2022-12-24T11:26:32.325Z,95592
2022-12-24T11:27:40.977Z,95580
2022-12-24T11:28:50.660Z,95589
2022-12-24T11:30:00.162Z,95583
2022-12-24T11:31:08.991Z,95593
2022-12-24T11:32:17.657Z,95588
2022-12-24T11:33:27.316Z,95595
2022-12-24T11:34:36.979Z,95592
2022-12-24T11:35:45.697Z,95597
2022-12-24T11:36:54.356Z,95572
2022-12-24T11:38:04.025Z,95571
2022-12-24T11:39:11.719Z,95585
2022-12-24T11:40:21.390Z,95585
2022-12-24T11:41:31.028Z,95583
2022-12-24T11:42:39.720Z,95576
2022-12-24T11:43:49.376Z,95591
2022-12-24T11:44:58.053Z,95579
2022-12-24T11:46:07.828Z,95571
2022-12-24T11:47:17.404Z,95576
2022-12-24T11:48:28.131Z,95567
2022-12-24T11:49:36.779Z,95564
2022-12-24T11:50:45.442Z,95565
2022-12-24T11:51:55.123Z,95565
2022-12-24T11:53:04.841Z,95566
2022-12-24T11:54:12.520Z,95569
2022-12-24T11:55:22.188Z,95578
2022-12-24T11:56:31.966Z,95582
2022-12-24T11:57:41.524Z,95576
2022-12-24T11:58:50.198Z,95582
2022-12-24T11:59:58.870Z,95571
2022-12-24T12:01:13.399Z,95565
2022-12-24T12:02:19.244Z,95569
2022-12-24T12:03:27.921Z,95573
2022-12-24T12:04:36.559Z,95577
2022-12-24T12:05:46.255Z,95586
2022-12-24T12:06:53.967Z,95569
2022-12-24T12:08:02.592Z,95569
2022-12-24T12:09:12.256Z,95567
2022-12-24T12:10:20.891Z,95565
2022-12-24T12:11:30.575Z,95570
2022-12-24T12:12:39.262Z,95569
2022-12-24T12:13:47.894Z,95575
2022-12-24T12:14:56.544Z,95569
2022-12-24T12:16:05.253Z,95570
2022-12-24T12:17:14.896Z,95564
2022-12-24T12:18:23.575Z,95571
2022-12-24T12:19:32.237Z,95573
2022-12-24T12:20:41.919Z,95576
2022-12-24T12:21:51.593Z,95570
2022-12-24T12:23:01.271Z,95575
2022-12-24T12:24:09.916Z,95576
2022-12-24T12:25:19.590Z,95578
2022-12-24T12:26:28.283Z,95579
2022-12-24T12:27:37.946Z,95572
2022-12-24T12:28:46.635Z,95565
2022-12-24T12:29:55.305Z,95572
2022-12-24T12:31:04.071Z,95577
2022-12-24T12:32:14.705Z,95573
2022-12-24T12:33:22.418Z,95576
2022-12-24T12:34:31.978Z,95583
2022-12-24T12:35:41.685Z,95577
2022-12-24T12:36:50.313Z,95575
2022-12-24T12:38:00.958Z,95572
2022-12-24T12:39:09.608Z,95583
2022-12-24T12:40:19.311Z,95586
2022-12-24T12:41:28.972Z,95584
2022-12-24T12:42:38.631Z,95586
2022-12-24T12:43:47.282Z,95588
2022-12-24T12:44:56.999Z,95589
2022-12-24T12:46:06.672Z,95586
2022-12-24T12:47:15.342Z,95593
2022-12-24T12:48:24.987Z,95592
2022-12-24T12:49:33.628Z,95597
2022-12-24T12:50:43.309Z,95594
2022-12-24T12:51:52.999Z,95591
2022-12-24T12:53:02.658Z,95596
2022-12-24T12:54:12.328Z,95595
2022-12-24T12:55:24.547Z,95596
2022-12-24T12:56:29.637Z,95600
2022-12-24T12:57:38.317Z,95601
2022-12-24T12:58:47.978Z,95604
2022-12-24T12:59:57.637Z,95601
2022-12-24T13:01:05.447Z,95601
2022-12-24T13:02:14.048Z,95600
2022-12-24T13:03:23.694Z,95604
2022-12-24T13:04:33.321Z,95599
2022-12-24T13:05:41.973Z,95598
2022-12-24T13:06:51.627Z,95599
2022-12-24T13:08:00.288Z,95598
2022-12-24T13:09:09.968Z,95596
2022-12-24T13:10:17.613Z,95599
2022-12-24T13:11:26.276Z,95594
2022-12-24T13:12:35.933Z,95592
2022-12-24T13:13:43.593Z,95599
2022-12-24T13:14:52.302Z,95598
2022-12-24T13:16:00.998Z,95601
2022-12-24T13:17:09.689Z,95598
2022-12-24T13:18:19.331Z,95599
2022-12-24T13:19:32.927Z,95599
2022-12-24T13:20:37.653Z,95599
2022-12-24T13:21:47.353Z,95599
2022-12-24T13:22:56.010Z,95599
2022-12-24T13:24:05.671Z,95596
2022-12-24T13:25:15.432Z,95598
2022-12-24T13:26:25.132Z,95608
2022-12-24T13:27:34.811Z,95602
2022-12-24T13:28:42.455Z,95604
2022-12-24T13:29:51.106Z,95616
2022-12-24T13:31:01.844Z,95607
2022-12-24T13:32:11.458Z,95612
2022-12-24T13:33:21.175Z,95615
2022-12-24T13:34:30.822Z,95612
2022-12-24T13:35:39.463Z,95607
2022-12-24T13:36:49.133Z,95609
2022-12-24T13:37:57.807Z,95613
2022-12-24T13:39:06.479Z,95608
2022-12-24T13:40:16.131Z,95617
2022-12-24T13:41:23.851Z,95619
2022-12-24T13:42:34.495Z,95617
2022-12-24T13:43:44.190Z,95613
2022-12-24T13:44:52.846Z,95616
2022-12-24T13:46:01.562Z,95624
2022-12-24T13:47:10.150Z,95617
2022-12-24T13:48:18.802Z,95617
2022-12-24T13:49:28.511Z,95617
2022-12-24T13:50:38.168Z,95615
2022-12-24T13:51:46.832Z,95627
2022-12-24T13:52:55.540Z,95626
2022-12-24T13:54:04.189Z,95629
2022-12-24T13:55:13.892Z,95623
2022-12-24T13:56:23.570Z,95627
2022-12-24T13:57:33.250Z,95630
2022-12-24T13:58:42.941Z,95628
2022-12-24T13:59:52.609Z,95634
2022-12-24T14:01:01.355Z,95635
2022-12-24T14:02:10.050Z,95633
2022-12-24T14:03:18.670Z,95636
2022-12-24T14:04:28.269Z,95636
2022-12-24T14:05:36.940Z,95636
2022-12-24T14:06:45.579Z,95640
2022-12-24T14:07:55.239Z,95643
2022-12-24T14:09:03.893Z,95636
2022-12-24T14:10:12.562Z,95639
2022-12-24T14:11:21.230Z,95639
2022-12-24T14:12:31.915Z,95636
2022-12-24T14:13:40.644Z,95639
2022-12-24T14:14:50.222Z,95636
2022-12-24T14:15:59.911Z,95640
2022-12-24T14:17:08.546Z,95644
2022-12-24T14:18:17.217Z,95644
2022-12-24T14:19:28.146Z,95646
2022-12-24T14:20:37.525Z,95645
2022-12-24T14:21:47.172Z,95642
2022-12-24T14:22:56.871Z,95640
2022-12-24T14:24:06.553Z,95633
2022-12-24T14:25:16.228Z,95637
2022-12-24T14:26:24.953Z,95649
2022-12-24T14:27:34.615Z,95645
2022-12-24T14:28:44.310Z,95648
2022-12-24T14:29:52.972Z,95651
2022-12-24T14:31:01.674Z,95648
2022-12-24T14:32:11.349Z,95647
2022-12-24T14:33:20.017Z,95653
2022-12-24T14:34:29.707Z,95650
2022-12-24T14:35:38.384Z,95648
2022-12-24T14:36:47.044Z,95651
2022-12-24T14:37:56.747Z,95656
2022-12-24T14:39:06.400Z,95653
2022-12-24T14:40:15.088Z,95659
2022-12-24T14:41:24.795Z,95672
2022-12-24T14:42:34.476Z,95661
2022-12-24T14:43:44.152Z,95662
2022-12-24T14:44:52.844Z,95662
2022-12-24T14:46:01.555Z,95669
2022-12-24T14:47:11.229Z,95673
2022-12-24T14:48:19.088Z,95678
2022-12-24T14:49:28.745Z,95676
2022-12-24T14:50:38.400Z,95679